NOAA Web Site Link Tides and Currents Home Page Transparent placeholder image

PORTS® Data Listing: 8551762 Delaware City, DE

CO-OPS RAW PORTS DATA

************************      PRELIMINARY DATA      ************************** 

     THIS RAW DATA HAS NOT BEEN SUBJECT TO THE NATIONAL OCEAN SERVICE'S        
     QUALITY CONTROL OR QUALITY ASSURANCE PROCEDURES AND DOES NOT MEET         
     THE CRITERIA AND STANDARDS OF OFFICIAL NATIONAL OCEAN SERVICE             
     DATA.  IT IS RELEASED FOR LIMITED PUBLIC USE AS PRELIMINARY DATA TO       
     BE USED ONLY WITH APPROPRIATE CAUTION.                                    

************************      PRELIMINARY DATA      ************************** 


       CD   -   Calendar date
       T    -   Time
       TZ   -   Timezone
       PW   -   Predicted water level (feet above MLLW)
       OW   -   Observed water level (feet above MLLW)
       WS   -   Wind speed (knots)
       WD   -   Wind direction (degrees true)
       WG   -   Wind gust (knots)
       AT   -   Air temperature (degrees farenheit)
       WT   -   Water temperature (degrees farenheit)
       AP   -   Air pressure (millibars)
       SA   -   Salinty (PSU - Practical Salinity Units)
       SG   -   Specific gravity
       RH   -   Relative humidity
       AG   -   Air gap (feet)
       VI   -   Visibility (nautical miles)

       ** NOTE **
       A variable that has its data fields filled with "9"s, indicates that
       data was not collected for that sample period.
       **********


STATION NAME: Delaware City (8551762)
****************************************************************************************************
    CD       T    TZ    PW     OW    WS   WD   WG    AT    WT    AP    SA    SG     RH    AG   VI
****************************************************************************************************
2018/01/17 04:54 EST   -0.10   0.93    8  324    9  33.4  30.2 1025.6 -9.9 -9.999 -99.9 -99.99 -9.99
2018/01/17 05:00 EST   -0.15   0.86    7  326   10  33.3  30.4 1025.6 -9.9 -9.999 -99.9 -99.99 -9.99
2018/01/17 05:06 EST   -0.19   0.84    9  326   13  33.3  30.6 1025.5 -9.9 -9.999 -99.9 -99.99 -9.99
2018/01/17 05:12 EST   -0.22   0.78    9  324   11  33.3  30.6 1025.7 -9.9 -9.999 -99.9 -99.99 -9.99
2018/01/17 05:18 EST   -0.25   0.73    9  327   11  33.3  30.6 1025.8 -9.9 -9.999 -99.9 -99.99 -9.99
2018/01/17 05:24 EST   -0.28   0.68    8  329   10  33.1  30.6 1025.8 -9.9 -9.999 -99.9 -99.99 -9.99
2018/01/17 05:30 EST   -0.29   0.64    7  328   10  33.1  30.6 1025.9 -9.9 -9.999 -99.9 -99.99 -9.99
2018/01/17 05:36 EST   -0.30   0.60    7  327    9  33.1  30.6 1025.9 -9.9 -9.999 -99.9 -99.99 -9.99
2018/01/17 05:42 EST   -0.30   0.57    6  324   10  32.9  30.7 1026.0 -9.9 -9.999 -99.9 -99.99 -9.99
2018/01/17 05:48 EST   -0.29   0.52    7  330    9  32.9  30.7 1026.0 -9.9 -9.999 -99.9 -99.99 -9.99
2018/01/17 05:54 EST   -0.27   0.51    7  326    8  32.7  30.7 1026.0 -9.9 -9.999 -99.9 -99.99 -9.99
2018/01/17 06:00 EST   -0.24   0.50    6  326    8  32.7  30.7 1026.1 -9.9 -9.999 -99.9 -99.99 -9.99
2018/01/17 06:06 EST   -0.20   0.50    6  325    9  32.7  30.9 1026.1 -9.9 -9.999 -99.9 -99.99 -9.99
2018/01/17 06:12 EST   -0.15   0.51    6  322    8  32.5  30.9 1026.2 -9.9 -9.999 -99.9 -99.99 -9.99
2018/01/17 06:18 EST   -0.09   0.55    8  324   11  32.5  30.9 1026.3 -9.9 -9.999 -99.9 -99.99 -9.99
2018/01/17 06:24 EST   -0.02   0.61    7  324   11  32.5  31.3 1026.4 -9.9 -9.999 -99.9 -99.99 -9.99
2018/01/17 06:30 EST    0.07   0.68    8  323   11  32.4  31.5 1026.5 -9.9 -9.999 -99.9 -99.99 -9.99
2018/01/17 06:36 EST    0.16   0.76    9  326   12  32.2  31.5 1026.5 -9.9 -9.999 -99.9 -99.99 -9.99
2018/01/17 06:42 EST    0.26   0.88    7  325   10  32.2  31.5 1026.6 -9.9 -9.999 -99.9 -99.99 -9.99
2018/01/17 06:48 EST    0.38   1.01    5  313    8  32.0  31.5 1026.7 -9.9 -9.999 -99.9 -99.99 -9.99
2018/01/17 06:54 EST    0.50   1.15    8  313   11  31.6  31.5 1026.7 -9.9 -9.999 -99.9 -99.99 -9.99
2018/01/17 07:00 EST    0.63   1.28    7  314   12  31.5  31.3 1026.7 -9.9 -9.999 -99.9 -99.99 -9.99
2018/01/17 07:06 EST    0.77   1.43   11  319   15  31.1  31.3 1026.7 -9.9 -9.999 -99.9 -99.99 -9.99
2018/01/17 07:12 EST    0.91   1.56    8  320   15  31.1  31.3 1026.8 -9.9 -9.999 -99.9 -99.99 -9.99
2018/01/17 07:18 EST    1.07   1.70   10  326   12  30.7  31.1 1026.7 -9.9 -9.999 -99.9 -99.99 -9.99
2018/01/17 07:24 EST    1.22   1.85    9  323   12  30.6  31.1 1026.9 -9.9 -9.999 -99.9 -99.99 -9.99
2018/01/17 07:30 EST    1.38   2.00   10  326   14  30.6  30.9 1026.8 -9.9 -9.999 -99.9 -99.99 -9.99
2018/01/17 07:36 EST    1.54   2.15    9  326   13  30.4  30.7 1026.8 -9.9 -9.999 -99.9 -99.99 -9.99
2018/01/17 07:42 EST    1.71   2.28    8  323   11  30.4  30.7 1026.9 -9.9 -9.999 -99.9 -99.99 -9.99
2018/01/17 07:48 EST    1.88   2.44    9  321   14  30.2  30.6 1026.9 -9.9 -9.999 -99.9 -99.99 -9.99
2018/01/17 07:54 EST    2.04   2.59    9  327   11  30.0  30.6 1026.9 -9.9 -9.999 -99.9 -99.99 -9.99
2018/01/17 08:00 EST    2.21   2.72    9  322   12  29.8  30.4 1026.9 -9.9 -9.999 -99.9 -99.99 -9.99
2018/01/17 08:06 EST    2.37   2.85    9  325   11  29.7  30.4 1026.9 -9.9 -9.999 -99.9 -99.99 -9.99
2018/01/17 08:12 EST    2.53   2.98   10  326   14  29.5  30.4 1026.9 -9.9 -9.999 -99.9 -99.99 -9.99
2018/01/17 08:18 EST    2.69   3.10    8  318   12  29.5  30.2 1027.0 -9.9 -9.999 -99.9 -99.99 -9.99
2018/01/17 08:24 EST    2.85   3.24   11  319   15  29.3  30.0 1027.1 -9.9 -9.999 -99.9 -99.99 -9.99
2018/01/17 08:30 EST    3.00   3.38   11  327   14  29.1  30.0 1027.1 -9.9 -9.999 -99.9 -99.99 -9.99
2018/01/17 08:36 EST    3.15   3.47    9  320   13  29.3  30.2 1027.2 -9.9 -9.999 -99.9 -99.99 -9.99
2018/01/17 08:42 EST    3.29   3.62   13  313   17  28.4  30.2 1027.2 -9.9 -9.999 -99.9 -99.99 -9.99
2018/01/17 08:48 EST    3.43   3.75   10  315   15  28.0  30.2 1027.4 -9.9 -9.999 -99.9 -99.99 -9.99
2018/01/17 08:54 EST    3.57   3.86   10  311   16  27.7  30.0 1027.5 -9.9 -9.999 -99.9 -99.99 -9.99
2018/01/17 09:00 EST    3.70   3.96   11  310   16  27.5  30.0 1027.6 -9.9 -9.999 -99.9 -99.99 -9.99
2018/01/17 09:06 EST    3.83   4.07   12  315   16  27.3  30.0 1027.7 -9.9 -9.999 -99.9 -99.99 -9.99
2018/01/17 09:12 EST    3.95   4.19   11  317   15  27.0  30.0 1027.8 -9.9 -9.999 -99.9 -99.99 -9.99
2018/01/17 09:18 EST    4.07   4.29   11  320   19  27.1  30.0 1027.9 -9.9 -9.999 -99.9 -99.99 -9.99
2018/01/17 09:24 EST    4.18   4.36    9  321   14  27.1  29.8 1028.0 -9.9 -9.999 -99.9 -99.99 -9.99
2018/01/17 09:30 EST    4.30   4.48    7  311   11  27.0  30.0 1028.0 -9.9 -9.999 -99.9 -99.99 -9.99
2018/01/17 09:36 EST    4.40   4.58   11  313   14  26.6  30.0 1028.0 -9.9 -9.999 -99.9 -99.99 -9.99
2018/01/17 09:42 EST    4.51   4.65    9  314   13  26.4  29.8 1028.0 -9.9 -9.999 -99.9 -99.99 -9.99
2018/01/17 09:48 EST    4.61   4.72   10  311   14  26.2  30.0 1027.9 -9.9 -9.999 -99.9 -99.99 -9.99
2018/01/17 09:54 EST    4.70   4.84   10  314   15  26.1  30.0 1028.0 -9.9 -9.999 -99.9 -99.99 -9.99
2018/01/17 10:00 EST    4.79   4.90   11  316   15  26.1  30.0 1028.1 -9.9 -9.999 -99.9 -99.99 -9.99
2018/01/17 10:06 EST    4.88   4.96   14  318   17  26.1  30.0 1028.1 -9.9 -9.999 -99.9 -99.99 -9.99
2018/01/17 10:12 EST    4.96   5.04   12  318   15  26.2  29.8 1028.2 -9.9 -9.999 -99.9 -99.99 -9.99
2018/01/17 10:18 EST    5.04   5.10   10  319   15  26.2  29.8 1028.3 -9.9 -9.999 -99.9 -99.99 -9.99
2018/01/17 10:24 EST    5.12   5.13   10  314   14  26.4  29.8 1028.2 -9.9 -9.999 -99.9 -99.99 -9.99
2018/01/17 10:30 EST    5.19   5.22   11  318   15  26.1  29.8 1028.2 -9.9 -9.999 -99.9 -99.99 -9.99
2018/01/17 10:36 EST    5.25   5.26    9  322   13  26.4  29.7 1028.1 -9.9 -9.999 -99.9 -99.99 -9.99
2018/01/17 10:42 EST    5.31   5.31   12  324   14  26.2  29.7 1028.0 -9.9 -9.999 -99.9 -99.99 -9.99
2018/01/17 10:48 EST    5.36   5.36   11  324   16  26.1  29.7 1028.0 -9.9 -9.999 -99.9 -99.99 -9.99
2018/01/17 10:54 EST    5.41   5.41   12  319   16  26.1  29.7 1027.9 -9.9 -9.999 -99.9 -99.99 -9.99
2018/01/17 11:00 EST    5.45   5.43   10  326   16  26.1  29.7 1027.9 -9.9 -9.999 -99.9 -99.99 -9.99
2018/01/17 11:06 EST    5.48   5.48   12  323   17  25.9  29.7 1027.9 -9.9 -9.999 -99.9 -99.99 -9.99
2018/01/17 11:12 EST    5.50   5.50   13  324   16  25.5  29.7 1027.9 -9.9 -9.999 -99.9 -99.99 -9.99
2018/01/17 11:18 EST    5.52   5.49   10  312   16  25.3  29.7 1027.9 -9.9 -9.999 -99.9 -99.99 -9.99
2018/01/17 11:24 EST    5.53   5.50   11  318   16  25.2  29.7 1027.7 -9.9 -9.999 -99.9 -99.99 -9.99
2018/01/17 11:30 EST    5.53   5.55   10  315   15  25.0  29.7 1027.6 -9.9 -9.999 -99.9 -99.99 -9.99
2018/01/17 11:36 EST    5.52   5.49   11  320   14  25.0  29.7 1027.5 -9.9 -9.999 -99.9 -99.99 -9.99
2018/01/17 11:42 EST    5.50   5.44   14  315   17  24.8  29.7 1027.3 -9.9 -9.999 -99.9 -99.99 -9.99
2018/01/17 11:48 EST    5.47   5.50   12  322   16  24.8  29.7 1027.1 -9.9 -9.999 -99.9 -99.99 -9.99
2018/01/17 11:54 EST    5.44   5.41   11  319   16  25.2  29.7 1027.0 -9.9 -9.999 -99.9 -99.99 -9.99
2018/01/17 12:00 EST    5.40   5.33   12  317   15  25.0  29.7 1027.0 -9.9 -9.999 -99.9 -99.99 -9.99
2018/01/17 12:06 EST    5.34   5.32   11  326   17  25.0  29.7 1026.9 -9.9 -9.999 -99.9 -99.99 -9.99
2018/01/17 12:12 EST    5.29   5.24   11  320   15  25.0  29.7 1026.7 -9.9 -9.999 -99.9 -99.99 -9.99
2018/01/17 12:18 EST    5.22   5.14   10  306   16  25.0  29.7 1026.5 -9.9 -9.999 -99.9 -99.99 -9.99
2018/01/17 12:24 EST    5.15   5.07   13  317   17  24.8  29.7 1026.4 -9.9 -9.999 -99.9 -99.99 -9.99
2018/01/17 12:30 EST    5.07   4.97   11  318   16  25.2  29.7 1026.2 -9.9 -9.999 -99.9 -99.99 -9.99
2018/01/17 12:36 EST    4.98   4.88   13  321   16  25.0  29.7 1026.2 -9.9 -9.999 -99.9 -99.99 -9.99
2018/01/17 12:42 EST    4.89   4.79   13  327   16  25.2  29.7 1026.1 -9.9 -9.999 -99.9 -99.99 -9.99
2018/01/17 12:48 EST    4.79   4.69   12  313   16  25.2  29.7 1026.2 -9.9 -9.999 -99.9 -99.99 -9.99
2018/01/17 12:54 EST    4.68   4.59   11  312   18  25.3  29.7 1026.1 -9.9 -9.999 -99.9 -99.99 -9.99
2018/01/17 13:00 EST    4.58   4.46   14  316   17  24.8  29.7 1026.0 -9.9 -9.999 -99.9 -99.99 -9.99
2018/01/17 13:06 EST    4.47   4.37   12  306   17  25.0  29.7 1025.8 -9.9 -9.999 -99.9 -99.99 -9.99
2018/01/17 13:12 EST    4.35   4.27   12  313   18  25.2  29.7 1025.9 -9.9 -9.999 -99.9 -99.99 -9.99
2018/01/17 13:18 EST    4.24   4.14   12  312   15  25.2  29.7 1025.8 -9.9 -9.999 -99.9 -99.99 -9.99
2018/01/17 13:24 EST    4.12   4.05   14  310   17  25.0  29.7 1025.6 -9.9 -9.999 -99.9 -99.99 -9.99
2018/01/17 13:30 EST    4.00   3.93    9  317   16  25.5  29.7 1025.7 -9.9 -9.999 -99.9 -99.99 -9.99
2018/01/17 13:36 EST    3.88   3.79   13  302   16  24.8  29.7 1025.7 -9.9 -9.999 -99.9 -99.99 -9.99
2018/01/17 13:42 EST    3.75   3.68   13  318   15  25.0  29.7 1025.8 -9.9 -9.999 -99.9 -99.99 -9.99
2018/01/17 13:48 EST    3.63   3.57   11  315   16  25.0  29.7 1025.8 -9.9 -9.999 -99.9 -99.99 -9.99
2018/01/17 13:54 EST    3.51   3.46   11  318   17  25.0  29.7 1025.8 -9.9 -9.999 -99.9 -99.99 -9.99
2018/01/17 14:00 EST    3.38   3.34   12  329   17  24.8  29.7 1025.6 -9.9 -9.999 -99.9 -99.99 -9.99
2018/01/17 14:06 EST    3.26   3.23   13  331   16  24.8  29.7 1025.6 -9.9 -9.999 -99.9 -99.99 -9.99
2018/01/17 14:12 EST    3.14   3.12   12  327   15  24.8  29.7 1025.6 -9.9 -9.999 -99.9 -99.99 -9.99
2018/01/17 14:18 EST    3.02   3.01   10  324   14  25.0  29.7 1025.6 -9.9 -9.999 -99.9 -99.99 -9.99
2018/01/17 14:24 EST    2.90   2.92   11  320   15  24.6  29.8 1025.6 -9.9 -9.999 -99.9 -99.99 -9.99
2018/01/17 14:30 EST    2.79   2.81    9  314   14  25.0  29.8 1025.6 -9.9 -9.999 -99.9 -99.99 -9.99
2018/01/17 14:36 EST    2.67   2.72   11  315   17  24.8  29.8 1025.5 -9.9 -9.999 -99.9 -99.99 -9.99
2018/01/17 14:42 EST    2.56   2.63   11  321   18  24.6  29.8 1025.5 -9.9 -9.999 -99.9 -99.99 -9.99
2018/01/17 14:48 EST    2.45   2.54   11  321   14  24.8  29.8 1025.5 -9.9 -9.999 -99.9 -99.99 -9.99
2018/01/17 14:54 EST    2.34   2.44   12  318   16  25.0  29.8 1025.3 -9.9 -9.999 -99.9 -99.99 -9.99
2018/01/17 15:00 EST    2.24   2.34   12  325   16  24.8  29.8 1025.1 -9.9 -9.999 -99.9 -99.99 -9.99
2018/01/17 15:06 EST    2.13   2.25   11  320   15  24.8  29.8 1025.1 -9.9 -9.999 -99.9 -99.99 -9.99
2018/01/17 15:12 EST    2.03   2.18   12  326   17  24.6  29.8 1025.1 -9.9 -9.999 -99.9 -99.99 -9.99
2018/01/17 15:18 EST    1.93   2.10   10  310   16  24.4  29.8 1025.0 -9.9 -9.999 -99.9 -99.99 -9.99
2018/01/17 15:24 EST    1.84   2.02   11  328   14  24.6  29.8 1024.9 -9.9 -9.999 -99.9 -99.99 -9.99
2018/01/17 15:30 EST    1.74   1.92   11  323   15  25.0  29.8 1024.9 -9.9 -9.999 -99.9 -99.99 -9.99
2018/01/17 15:36 EST    1.65   1.85   12  324   15  24.8  30.0 1025.0 -9.9 -9.999 -99.9 -99.99 -9.99
2018/01/17 15:42 EST    1.56   1.77   11  313   15  24.6  30.0 1025.1 -9.9 -9.999 -99.9 -99.99 -9.99
2018/01/17 15:48 EST    1.47   1.67    9  323   14  25.3  30.0 1025.3 -9.9 -9.999 -99.9 -99.99 -9.99
2018/01/17 15:54 EST    1.38   1.58   10  314   13  24.8  30.0 1025.4 -9.9 -9.999 -99.9 -99.99 -9.99
2018/01/17 16:00 EST    1.29   1.49   10  316   13  24.8  30.0 1025.3 -9.9 -9.999 -99.9 -99.99 -9.99
2018/01/17 16:06 EST    1.20   1.40   10  313   14  24.4  30.0 1025.3 -9.9 -9.999 -99.9 -99.99 -9.99
2018/01/17 16:12 EST    1.12   1.32   11  318   16  24.6  30.0 1025.2 -9.9 -9.999 -99.9 -99.99 -9.99
2018/01/17 16:18 EST    1.03   1.22   11  324   15  24.6  30.2 1024.9 -9.9 -9.999 -99.9 -99.99 -9.99
2018/01/17 16:24 EST    0.95   1.14    9  305   16  24.1  30.2 1025.0 -9.9 -9.999 -99.9 -99.99 -9.99
2018/01/17 16:30 EST    0.86   1.04   11  319   17  24.8  30.2 1025.1 -9.9 -9.999 -99.9 -99.99 -9.99
2018/01/17 16:36 EST    0.78   0.96   13  329   16  24.3  30.2 1025.1 -9.9 -9.999 -99.9 -99.99 -9.99
2018/01/17 16:42 EST    0.70   0.86   10  313   14  24.3  30.2 1025.1 -9.9 -9.999 -99.9 -99.99 -9.99
2018/01/17 16:48 EST    0.62   0.79    7  309   12  24.1  30.2 1025.1 -9.9 -9.999 -99.9 -99.99 -9.99
2018/01/17 16:54 EST    0.54   0.71   10  315   14  23.9  30.4 1025.0 -9.9 -9.999 -99.9 -99.99 -9.99
2018/01/17 17:00 EST    0.46   0.64    9  312   14  24.1  30.4 1024.9 -9.9 -9.999 -99.9 -99.99 -9.99
2018/01/17 17:06 EST    0.38   0.56   13  324   16  24.3  30.6 1024.8 -9.9 -9.999 -99.9 -99.99 -9.99
2018/01/17 17:12 EST    0.31   0.49   14  328   17  24.4  30.6 1024.8 -9.9 -9.999 -99.9 -99.99 -9.99
2018/01/17 17:18 EST    0.24   0.41   10  318   15  24.3  30.7 1024.8 -9.9 -9.999 -99.9 -99.99 -9.99
2018/01/17 17:24 EST    0.17   0.34   12  324   15  24.1  30.7 1024.8 -9.9 -9.999 -99.9 -99.99 -9.99
2018/01/17 17:30 EST    0.10   0.27   12  326   17  24.3  30.9 1024.7 -9.9 -9.999 -99.9 -99.99 -9.99
2018/01/17 17:36 EST    0.04   0.21   11  325   17  24.3  31.1 1024.9 -9.9 -9.999 -99.9 -99.99 -9.99
2018/01/17 17:42 EST   -0.01   0.16    9  325   14  24.3  31.1 1024.8 -9.9 -9.999 -99.9 -99.99 -9.99
2018/01/17 17:48 EST   -0.06   0.09   13  325   17  23.9  31.3 1025.0 -9.9 -9.999 -99.9 -99.99 -9.99
2018/01/17 17:54 EST   -0.10   0.04   12  325   17  23.7  31.3 1024.9 -9.9 -9.999 -99.9 -99.99 -9.99
2018/01/17 18:00 EST   -0.14  -0.01   12  328   16  23.9  31.3 1025.0 -9.9 -9.999 -99.9 -99.99 -9.99
2018/01/17 18:06 EST   -0.16  -0.05   14  326   17  23.9  31.3 1024.7 -9.9 -9.999 -99.9 -99.99 -9.99
2018/01/17 18:12 EST   -0.18  -0.10   11  322   17  23.9  31.3 1024.8 -9.9 -9.999 -99.9 -99.99 -9.99
2018/01/17 18:18 EST   -0.19  -0.15   10  323   16  23.9  31.3 1025.0 -9.9 -9.999 -99.9 -99.99 -9.99
2018/01/17 18:24 EST   -0.19  -0.19   11  327   16  24.1  31.1 1025.0 -9.9 -9.999 -99.9 -99.99 -9.99
2018/01/17 18:30 EST   -0.18  -0.22   12  325   15  23.7  31.1 1024.9 -9.9 -9.999 -99.9 -99.99 -9.99
2018/01/17 18:36 EST   -0.16  -0.25   10  328   14  23.7  30.6 1025.3 -9.9 -9.999 -99.9 -99.99 -9.99
2018/01/17 18:42 EST   -0.13  -0.28   11  321   15  23.7  30.6 1025.5 -9.9 -9.999 -99.9 -99.99 -9.99
2018/01/17 18:48 EST   -0.08  -0.30    8  315   11  23.7  30.6 1025.5 -9.9 -9.999 -99.9 -99.99 -9.99
2018/01/17 18:54 EST   -0.03  -0.31    9  320   12  24.1  30.6 1025.3 -9.9 -9.999 -99.9 -99.99 -9.99
2018/01/17 19:00 EST    0.03  -0.33    7  316   11  24.1  30.6 1025.2 -9.9 -9.999 -99.9 -99.99 -9.99
2018/01/17 19:06 EST    0.11  -0.35    9  325   12  24.1  30.6 1025.2 -9.9 -9.999 -99.9 -99.99 -9.99
2018/01/17 19:12 EST    0.19  -0.31   11  323   14  24.3  30.2 1025.0 -9.9 -9.999 -99.9 -99.99 -9.99
2018/01/17 19:18 EST    0.28  -0.25   10  329   13  23.9  30.0 1024.9 -9.9 -9.999 -99.9 -99.99 -9.99
2018/01/17 19:24 EST    0.39  -0.19   10  324   15  24.1  29.8 1024.6 -9.9 -9.999 -99.9 -99.99 -9.99
2018/01/17 19:30 EST    0.50  -0.11   13  329   16  23.5  29.8 1024.3 -9.9 -9.999 -99.9 -99.99 -9.99
2018/01/17 19:36 EST    0.61  -0.01   11  330   15  23.7  29.8 1024.6 -9.9 -9.999 -99.9 -99.99 -9.99
2018/01/17 19:42 EST    0.73   0.12   11  326   15  23.9  29.7 1024.6 -9.9 -9.999 -99.9 -99.99 -9.99
2018/01/17 19:48 EST    0.86   0.25    8  324   13  24.1  29.7 1024.9 -9.9 -9.999 -99.9 -99.99 -9.99
2018/01/17 19:54 EST    0.99   0.43   12  330   15  23.7  29.7 1024.5 -9.9 -9.999 -99.9 -99.99 -9.99
2018/01/17 20:00 EST    1.13   0.61   12  326   16  23.7  29.7 1024.4 -9.9 -9.999 -99.9 -99.99 -9.99
2018/01/17 20:06 EST    1.27   0.77   12  327   15  23.9  29.7 1024.5 -9.9 -9.999 -99.9 -99.99 -9.99
2018/01/17 20:12 EST    1.41   0.92    9  321   16  23.9  29.7 1024.7 -9.9 -9.999 -99.9 -99.99 -9.99
2018/01/17 20:18 EST    1.55   1.08   11  327   14  23.7  29.5 1024.4 -9.9 -9.999 -99.9 -99.99 -9.99
2018/01/17 20:24 EST    1.69   1.25   10  323   15  23.7  29.7 1024.6 -9.9 -9.999 -99.9 -99.99 -9.99
2018/01/17 20:30 EST    1.83   1.39   11  323   14  23.5  29.5 1024.7 -9.9 -9.999 -99.9 -99.99 -9.99
2018/01/17 20:36 EST    1.97   1.54   11  320   14  23.5  29.5 1024.7 -9.9 -9.999 -99.9 -99.99 -9.99
2018/01/17 20:42 EST    2.11   1.68   11  327   15  23.4  29.5 1024.9 -9.9 -9.999 -99.9 -99.99 -9.99
2018/01/17 20:48 EST    2.24   1.82    9  318   11  23.2  29.5 1024.7 -9.9 -9.999 -99.9 -99.99 -9.99
2018/01/17 20:54 EST    2.37   1.95    8  323   15  23.5  29.5 1024.9 -9.9 -9.999 -99.9 -99.99 -9.99
2018/01/17 21:00 EST    2.50   2.05    9  323   13  23.4  29.5 1024.7 -9.9 -9.999 -99.9 -99.99 -9.99
2018/01/17 21:06 EST    2.63   2.17    8  320   14  23.0  29.5 1024.9 -9.9 -9.999 -99.9 -99.99 -9.99
2018/01/17 21:12 EST    2.75   2.31    9  323   14  23.2  29.3 1024.7 -9.9 -9.999 -99.9 -99.99 -9.99
2018/01/17 21:18 EST    2.87   2.43    7  302   12  22.5  29.3 1025.0 -9.9 -9.999 -99.9 -99.99 -9.99
2018/01/17 21:24 EST    2.98   2.55    9  307   13  22.6  29.3 1024.9 -9.9 -9.999 -99.9 -99.99 -9.99
2018/01/17 21:30 EST    3.10   2.69    9  316   14  22.8  29.5 1024.9 -9.9 -9.999 -99.9 -99.99 -9.99
2018/01/17 21:36 EST    3.20   2.82   10  323   14  23.2  29.5 1024.9 -9.9 -9.999 -99.9 -99.99 -9.99
2018/01/17 21:42 EST    3.31   2.95   10  322   14  22.8  29.3 1024.8 -9.9 -9.999 -99.9 -99.99 -9.99
2018/01/17 21:48 EST    3.41   3.07    7  308   12  22.1  29.3 1024.9 -9.9 -9.999 -99.9 -99.99 -9.99
2018/01/17 21:54 EST    3.51   3.17    8  326   12  22.8  29.3 1024.8 -9.9 -9.999 -99.9 -99.99 -9.99
2018/01/17 22:00 EST    3.61   3.30    7  315   12  21.7  29.3 1024.7 -9.9 -9.999 -99.9 -99.99 -9.99
2018/01/17 22:06 EST    3.70   3.41    9  311   13  22.1  29.3 1024.6 -9.9 -9.999 -99.9 -99.99 -9.99
2018/01/17 22:12 EST    3.79   3.49    7  296   10  21.4  29.3 1025.0 -9.9 -9.999 -99.9 -99.99 -9.99
2018/01/17 22:18 EST    3.87   3.55    9  311   11  21.9  29.3 1024.7 -9.9 -9.999 -99.9 -99.99 -9.99
2018/01/17 22:24 EST    3.96   3.68    7  296   11  21.4  29.5 1024.9 -9.9 -9.999 -99.9 -99.99 -9.99
2018/01/17 22:30 EST    4.04   3.75    8  311   10  21.6  29.5 1024.7 -9.9 -9.999 -99.9 -99.99 -9.99
2018/01/17 22:36 EST    4.12   3.71    7  309   11  21.0  29.5 1024.7 -9.9 -9.999 -99.9 -99.99 -9.99
2018/01/17 22:42 EST    4.19   3.77    8  310   11  21.0  29.5 1024.6 -9.9 -9.999 -99.9 -99.99 -9.99
2018/01/17 22:48 EST    4.26   3.82    7  308   10  21.2  29.5 1024.7 -9.9 -9.999 -99.9 -99.99 -9.99
2018/01/17 22:54 EST    4.32 -99.99 -999 -999 -999 -99.9 -99.9 -999.9 -9.9 -9.999 -99.9 -99.99 -9.99
2018/01/17 23:00 EST    4.39 -99.99 -999 -999 -999 -99.9 -99.9 -999.9 -9.9 -9.999 -99.9 -99.99 -9.99
2018/01/17 23:06 EST    4.44 -99.99 -999 -999 -999 -99.9 -99.9 -999.9 -9.9 -9.999 -99.9 -99.99 -9.99
2018/01/17 23:12 EST    4.49 -99.99 -999 -999 -999 -99.9 -99.9 -999.9 -9.9 -9.999 -99.9 -99.99 -9.99
2018/01/17 23:18 EST    4.53 -99.99 -999 -999 -999 -99.9 -99.9 -999.9 -9.9 -9.999 -99.9 -99.99 -9.99
2018/01/17 23:24 EST    4.57 -99.99 -999 -999 -999 -99.9 -99.9 -999.9 -9.9 -9.999 -99.9 -99.99 -9.99
2018/01/17 23:30 EST    4.60 -99.99 -999 -999 -999 -99.9 -99.9 -999.9 -9.9 -9.999 -99.9 -99.99 -9.99
2018/01/17 23:36 EST    4.63 -99.99 -999 -999 -999 -99.9 -99.9 -999.9 -9.9 -9.999 -99.9 -99.99 -9.99
2018/01/17 23:42 EST    4.64 -99.99 -999 -999 -999 -99.9 -99.9 -999.9 -9.9 -9.999 -99.9 -99.99 -9.99
2018/01/17 23:48 EST    4.65 -99.99 -999 -999 -999 -99.9 -99.9 -999.9 -9.9 -9.999 -99.9 -99.99 -9.99
2018/01/17 23:54 EST    4.65 -99.99 -999 -999 -999 -99.9 -99.9 -999.9 -9.9 -9.999 -99.9 -99.99 -9.99
2018/01/18 00:00 EST    4.65 -99.99 -999 -999 -999 -99.9 -99.9 -999.9 -9.9 -9.999 -99.9 -99.99 -9.99
2018/01/18 00:06 EST    4.63 -99.99 -999 -999 -999 -99.9 -99.9 -999.9 -9.9 -9.999 -99.9 -99.99 -9.99
2018/01/18 00:12 EST    4.61 -99.99 -999 -999 -999 -99.9 -99.9 -999.9 -9.9 -9.999 -99.9 -99.99 -9.99
2018/01/18 00:18 EST    4.57 -99.99 -999 -999 -999 -99.9 -99.9 -999.9 -9.9 -9.999 -99.9 -99.99 -9.99
2018/01/18 00:24 EST    4.53 -99.99 -999 -999 -999 -99.9 -99.9 -999.9 -9.9 -9.999 -99.9 -99.99 -9.99
2018/01/18 00:30 EST    4.48 -99.99 -999 -999 -999 -99.9 -99.9 -999.9 -9.9 -9.999 -99.9 -99.99 -9.99
2018/01/18 00:36 EST    4.43 -99.99 -999 -999 -999 -99.9 -99.9 -999.9 -9.9 -9.999 -99.9 -99.99 -9.99
2018/01/18 00:42 EST    4.36 -99.99 -999 -999 -999 -99.9 -99.9 -999.9 -9.9 -9.999 -99.9 -99.99 -9.99
2018/01/18 00:48 EST    4.29 -99.99 -999 -999 -999 -99.9 -99.9 -999.9 -9.9 -9.999 -99.9 -99.99 -9.99
2018/01/18 00:54 EST    4.21 -99.99 -999 -999 -999 -99.9 -99.9 -999.9 -9.9 -9.999 -99.9 -99.99 -9.99
2018/01/18 01:00 EST    4.13 -99.99 -999 -999 -999 -99.9 -99.9 -999.9 -9.9 -9.999 -99.9 -99.99 -9.99
2018/01/18 01:06 EST    4.04 -99.99 -999 -999 -999 -99.9 -99.9 -999.9 -9.9 -9.999 -99.9 -99.99 -9.99
2018/01/18 01:12 EST    3.94 -99.99 -999 -999 -999 -99.9 -99.9 -999.9 -9.9 -9.999 -99.9 -99.99 -9.99
2018/01/18 01:18 EST    3.84 -99.99 -999 -999 -999 -99.9 -99.9 -999.9 -9.9 -9.999 -99.9 -99.99 -9.99
2018/01/18 01:24 EST    3.73 -99.99 -999 -999 -999 -99.9 -99.9 -999.9 -9.9 -9.999 -99.9 -99.99 -9.99
2018/01/18 01:30 EST    3.63 -99.99 -999 -999 -999 -99.9 -99.9 -999.9 -9.9 -9.999 -99.9 -99.99 -9.99
2018/01/18 01:36 EST    3.51 -99.99 -999 -999 -999 -99.9 -99.9 -999.9 -9.9 -9.999 -99.9 -99.99 -9.99
2018/01/18 01:42 EST    3.40 -99.99 -999 -999 -999 -99.9 -99.9 -999.9 -9.9 -9.999 -99.9 -99.99 -9.99
2018/01/18 01:48 EST    3.28 -99.99 -999 -999 -999 -99.9 -99.9 -999.9 -9.9 -9.999 -99.9 -99.99 -9.99
2018/01/18 01:54 EST    3.16 -99.99 -999 -999 -999 -99.9 -99.9 -999.9 -9.9 -9.999 -99.9 -99.99 -9.99
2018/01/18 02:00 EST    3.04 -99.99 -999 -999 -999 -99.9 -99.9 -999.9 -9.9 -9.999 -99.9 -99.99 -9.99
2018/01/18 02:06 EST    2.92 -99.99 -999 -999 -999 -99.9 -99.9 -999.9 -9.9 -9.999 -99.9 -99.99 -9.99
2018/01/18 02:12 EST    2.80 -99.99 -999 -999 -999 -99.9 -99.9 -999.9 -9.9 -9.999 -99.9 -99.99 -9.99
2018/01/18 02:18 EST    2.68 -99.99 -999 -999 -999 -99.9 -99.9 -999.9 -9.9 -9.999 -99.9 -99.99 -9.99
2018/01/18 02:24 EST    2.56 -99.99 -999 -999 -999 -99.9 -99.9 -999.9 -9.9 -9.999 -99.9 -99.99 -9.99
2018/01/18 02:30 EST    2.44 -99.99 -999 -999 -999 -99.9 -99.9 -999.9 -9.9 -9.999 -99.9 -99.99 -9.99
2018/01/18 02:36 EST    2.32 -99.99 -999 -999 -999 -99.9 -99.9 -999.9 -9.9 -9.999 -99.9 -99.99 -9.99
2018/01/18 02:42 EST    2.20 -99.99 -999 -999 -999 -99.9 -99.9 -999.9 -9.9 -9.999 -99.9 -99.99 -9.99
2018/01/18 02:48 EST    2.08 -99.99 -999 -999 -999 -99.9 -99.9 -999.9 -9.9 -9.999 -99.9 -99.99 -9.99
2018/01/18 02:54 EST    1.97 -99.99 -999 -999 -999 -99.9 -99.9 -999.9 -9.9 -9.999 -99.9 -99.99 -9.99
2018/01/18 03:00 EST    1.86 -99.99 -999 -999 -999 -99.9 -99.9 -999.9 -9.9 -9.999 -99.9 -99.99 -9.99
2018/01/18 03:06 EST    1.75 -99.99 -999 -999 -999 -99.9 -99.9 -999.9 -9.9 -9.999 -99.9 -99.99 -9.99
2018/01/18 03:12 EST    1.64 -99.99 -999 -999 -999 -99.9 -99.9 -999.9 -9.9 -9.999 -99.9 -99.99 -9.99
2018/01/18 03:18 EST    1.54 -99.99 -999 -999 -999 -99.9 -99.9 -999.9 -9.9 -9.999 -99.9 -99.99 -9.99
2018/01/18 03:24 EST    1.44 -99.99 -999 -999 -999 -99.9 -99.9 -999.9 -9.9 -9.999 -99.9 -99.99 -9.99
2018/01/18 03:30 EST    1.34 -99.99 -999 -999 -999 -99.9 -99.9 -999.9 -9.9 -9.999 -99.9 -99.99 -9.99
2018/01/18 03:36 EST    1.25 -99.99 -999 -999 -999 -99.9 -99.9 -999.9 -9.9 -9.999 -99.9 -99.99 -9.99
2018/01/18 03:42 EST    1.15 -99.99 -999 -999 -999 -99.9 -99.9 -999.9 -9.9 -9.999 -99.9 -99.99 -9.99
2018/01/18 03:48 EST    1.06 -99.99 -999 -999 -999 -99.9 -99.9 -999.9 -9.9 -9.999 -99.9 -99.99 -9.99
2018/01/18 03:54 EST    0.98 -99.99 -999 -999 -999 -99.9 -99.9 -999.9 -9.9 -9.999 -99.9 -99.99 -9.99
2018/01/18 04:00 EST    0.89 -99.99 -999 -999 -999 -99.9 -99.9 -999.9 -9.9 -9.999 -99.9 -99.99 -9.99
2018/01/18 04:06 EST    0.81 -99.99 -999 -999 -999 -99.9 -99.9 -999.9 -9.9 -9.999 -99.9 -99.99 -9.99
2018/01/18 04:12 EST    0.74 -99.99 -999 -999 -999 -99.9 -99.9 -999.9 -9.9 -9.999 -99.9 -99.99 -9.99
2018/01/18 04:18 EST    0.66 -99.99 -999 -999 -999 -99.9 -99.9 -999.9 -9.9 -9.999 -99.9 -99.99 -9.99
2018/01/18 04:24 EST    0.59 -99.99 -999 -999 -999 -99.9 -99.9 -999.9 -9.9 -9.999 -99.9 -99.99 -9.99
2018/01/18 04:30 EST    0.52 -99.99 -999 -999 -999 -99.9 -99.9 -999.9 -9.9 -9.999 -99.9 -99.99 -9.99
2018/01/18 04:36 EST    0.45 -99.99 -999 -999 -999 -99.9 -99.9 -999.9 -9.9 -9.999 -99.9 -99.99 -9.99
2018/01/18 04:42 EST    0.38 -99.99 -999 -999 -999 -99.9 -99.9 -999.9 -9.9 -9.999 -99.9 -99.99 -9.99
2018/01/18 04:48 EST    0.32 -99.99 -999 -999 -999 -99.9 -99.9 -999.9 -9.9 -9.999 -99.9 -99.99 -9.99
2018/01/18 04:54 EST    0.26 -99.99 -999 -999 -999 -99.9 -99.9 -999.9 -9.9 -9.999 -99.9 -99.99 -9.99

Revised: 10/15/2013
NOAA / National Ocean Service
Web site owner: Center for Operational Oceanographic Products and Services